Time;durP1;ratioP1;P1;durP2;ratioP2;P2;SDS_P1;SDS_P2;PMS_P1;PMS_P2;Temp;Humidity;BMP_temperature;BMP_pressure;BME280_temperature;BME280_humidity;BME280_pressure;Samples;Min_cycle;Max_cycle;Signal;HPM_P1;HPM_P2
2021/06/14 00:00:23;;;;;;;8.30;5.90;;;18.00;67.70;;;;;;5021253;28;20850;-48
2021/06/14 00:02:51;;;;;;;9.47;6.13;;;18.00;67.90;;;;;;5028178;28;21320;-48
2021/06/14 00:05:36;;;;;;;6.20;5.33;;;17.90;68.00;;;;;;5025674;28;20964;-48
2021/06/14 00:08:06;;;;;;;14.53;6.07;;;17.80;68.00;;;;;;5027058;28;20494;-48
2021/06/14 00:10:34;;;;;;;8.40;5.43;;;17.80;68.20;;;;;;5027605;28;20486;-48
2021/06/14 00:13:05;;;;;;;7.30;5.40;;;17.70;68.20;;;;;;5024905;28;20452;-48
2021/06/14 00:15:34;;;;;;;7.90;6.17;;;17.70;68.40;;;;;;5027311;28;20466;-47
2021/06/14 00:18:05;;;;;;;9.50;5.80;;;17.70;68.60;;;;;;5029656;28;20466;-48
2021/06/14 00:20:34;;;;;;;12.60;5.80;;;17.80;68.40;;;;;;5027077;28;20459;-49
2021/06/14 00:23:07;;;;;;;10.30;6.43;;;17.80;67.90;;;;;;5024655;28;20463;-48
2021/06/14 00:25:36;;;;;;;6.77;5.60;;;17.80;68.00;;;;;;5025485;28;20447;-49
2021/06/14 00:28:05;;;;;;;7.90;5.97;;;17.70;68.30;;;;;;5028666;28;20569;-48
2021/06/14 00:30:42;;;;;;;7.40;5.67;;;17.60;68.40;;;;;;5028099;28;20455;-48
2021/06/14 00:33:11;;;;;;;8.00;5.77;;;17.60;68.60;;;;;;5026320;28;20444;-48
2021/06/14 00:35:41;;;;;;;8.20;6.50;;;17.50;68.60;;;;;;5024649;28;20937;-48
2021/06/14 00:38:10;;;;;;;13.53;5.37;;;17.50;68.80;;;;;;5026246;28;20478;-48
2021/06/14 00:40:38;;;;;;;10.17;5.97;;;17.40;68.90;;;;;;5027062;28;20459;-48
2021/06/14 00:43:07;;;;;;;6.70;5.30;;;17.40;69.10;;;;;;5025509;28;20848;-48
2021/06/14 00:45:40;;;;;;;6.33;5.53;;;17.30;69.20;;;;;;5031264;28;20812;-48
2021/06/14 00:48:09;;;;;;;5.93;5.30;;;17.30;69.20;;;;;;5027930;28;20468;-48
2021/06/14 00:51:07;;;;;;;6.73;6.10;;;17.40;69.20;;;;;;5022939;28;20452;-48
2021/06/14 00:53:41;;;;;;;6.10;5.50;;;17.30;69.20;;;;;;5009273;28;20824;-48
2021/06/14 00:56:13;;;;;;;6.20;5.23;;;17.20;69.50;;;;;;5026097;28;20463;-48
2021/06/14 00:58:42;;;;;;;9.53;6.47;;;17.20;69.60;;;;;;5026663;28;21247;-49
2021/06/14 01:01:10;;;;;;;6.00;4.90;;;17.20;69.60;;;;;;5026245;28;20462;-48
2021/06/14 01:03:38;;;;;;;8.23;6.20;;;17.10;69.60;;;;;;5029570;28;20856;-49
2021/06/14 01:06:09;;;;;;;7.17;5.77;;;17.10;69.90;;;;;;5027059;28;20484;-48
2021/06/14 01:08:43;;;;;;;8.00;5.30;;;17.10;70.10;;;;;;5032356;28;21204;-48
2021/06/14 01:11:50;;;;;;;7.33;5.80;;;17.00;70.10;;;;;;5028776;28;20465;-48
2021/06/14 01:14:27;;;;;;;7.03;5.73;;;17.00;70.30;;;;;;5023670;28;20470;-48
2021/06/14 01:17:14;;;;;;;6.20;5.33;;;17.00;70.30;;;;;;5023174;28;20466;-48
2021/06/14 01:20:20;;;;;;;5.83;5.23;;;16.90;70.20;;;;;;5024319;28;20478;-48
2021/06/14 01:23:12;;;;;;;5.80;5.10;;;16.90;70.40;;;;;;5023907;28;20466;-48
2021/06/14 01:25:55;;;;;;;8.10;5.40;;;16.90;70.50;;;;;;5022537;28;20828;-48
2021/06/14 01:28:24;;;;;;;10.37;5.80;;;16.90;70.60;;;;;;5026923;28;20981;-48
2021/06/14 01:30:53;;;;;;;9.67;6.27;;;16.90;70.70;;;;;;5025181;28;20463;-48
2021/06/14 01:33:25;;;;;;;7.57;6.10;;;16.80;70.80;;;;;;5026444;28;20494;-48
2021/06/14 01:36:32;;;;;;;5.30;4.63;;;16.80;70.90;;;;;;5027877;28;21001;-48
2021/06/14 01:39:04;;;;;;;10.50;5.20;;;16.80;71.00;;;;;;4931057;29;20616;-48
2021/06/14 01:41:33;;;;;;;7.60;5.33;;;16.70;71.00;;;;;;5011239;28;20503;-48
2021/06/14 01:44:04;;;;;;;6.37;5.20;;;16.70;71.00;;;;;;5023529;28;20987;-48
2021/06/14 01:46:36;;;;;;;6.83;5.10;;;16.70;70.90;;;;;;5026723;28;20459;-48
2021/06/14 01:49:09;;;;;;;9.17;5.07;;;16.70;71.00;;;;;;5023667;28;20502;-48
2021/06/14 01:51:40;;;;;;;7.70;5.70;;;16.70;71.00;;;;;;5024838;28;20454;-48
2021/06/14 01:54:09;;;;;;;6.47;5.07;;;16.60;70.90;;;;;;5024855;28;20456;-49
2021/06/14 01:56:43;;;;;;;6.17;5.03;;;16.60;70.90;;;;;;5026591;28;20455;-49
2021/06/14 01:59:36;;;;;;;8.50;5.20;;;16.60;71.10;;;;;;5025182;28;20965;-48
2021/06/14 02:02:06;;;;;;;7.10;5.70;;;16.60;71.10;;;;;;5023467;28;21255;-48
2021/06/14 02:04:37;;;;;;;10.37;5.57;;;16.60;71.20;;;;;;5025157;28;20459;-48
2021/06/14 02:07:07;;;;;;;8.43;5.30;;;16.50;71.20;;;;;;5026211;28;20461;-48
2021/06/14 02:09:35;;;;;;;6.23;4.50;;;16.50;71.30;;;;;;5023567;28;20476;-48
2021/06/14 02:12:04;;;;;;;6.27;5.63;;;16.50;71.40;;;;;;5026344;28;20919;-48
2021/06/14 02:14:36;;;;;;;7.53;5.63;;;16.50;71.50;;;;;;5024859;28;20452;-48
2021/06/14 02:17:10;;;;;;;8.40;6.00;;;16.50;71.60;;;;;;5022203;28;20458;-48
2021/06/14 02:19:43;;;;;;;8.27;5.13;;;16.50;71.60;;;;;;5022460;28;21039;-48
2021/06/14 02:22:13;;;;;;;8.17;5.80;;;16.50;71.70;;;;;;5026686;28;20456;-48
2021/06/14 02:24:41;;;;;;;6.03;5.43;;;16.50;71.80;;;;;;5020571;28;20459;-47
2021/06/14 02:27:14;;;;;;;7.00;5.80;;;16.50;71.90;;;;;;5024697;28;20463;-48
2021/06/14 02:29:45;;;;;;;6.40;5.53;;;16.50;71.90;;;;;;5026493;28;20507;-45
2021/06/14 02:32:13;;;;;;;9.37;5.30;;;16.50;72.00;;;;;;5011766;28;20483;-46
2021/06/14 02:34:43;;;;;;;6.33;5.73;;;16.40;72.10;;;;;;5023334;28;20454;-46
2021/06/14 02:37:13;;;;;;;5.63;4.93;;;16.40;72.10;;;;;;5022390;28;20463;-45
2021/06/14 02:39:46;;;;;;;5.90;5.30;;;16.40;72.20;;;;;;5025831;28;20456;-46
2021/06/14 02:42:16;;;;;;;6.23;4.87;;;16.40;72.20;;;;;;5020390;28;20561;-45
2021/06/14 02:44:45;;;;;;;7.80;5.30;;;16.40;72.30;;;;;;5021098;28;20958;-46
2021/06/14 02:47:16;;;;;;;7.83;5.77;;;16.40;72.30;;;;;;5022892;28;20458;-46
2021/06/14 02:49:45;;;;;;;6.03;4.50;;;16.40;72.20;;;;;;5025795;28;20825;-45
2021/06/14 02:52:16;;;;;;;6.27;4.90;;;16.40;72.20;;;;;;5022349;28;20862;-46
2021/06/14 02:54:53;;;;;;;7.23;5.23;;;16.40;72.00;;;;;;5022564;28;20973;-46
2021/06/14 02:57:23;;;;;;;8.27;5.40;;;16.40;72.10;;;;;;5025083;28;20456;-46
2021/06/14 02:59:51;;;;;;;8.30;5.67;;;16.40;72.10;;;;;;5023762;28;20468;-46
2021/06/14 03:02:21;;;;;;;6.60;4.97;;;16.30;72.20;;;;;;5023707;28;20487;-46
2021/06/14 03:04:50;;;;;;;7.90;5.57;;;16.30;72.20;;;;;;5025103;28;20810;-46
2021/06/14 03:07:23;;;;;;;5.77;5.10;;;16.30;72.10;;;;;;5022954;28;20530;-46
2021/06/14 03:09:51;;;;;;;7.10;5.00;;;16.30;72.20;;;;;;5025697;28;20494;-46
2021/06/14 03:12:20;;;;;;;8.10;5.60;;;16.20;72.20;;;;;;5024974;28;20815;-46
2021/06/14 03:14:48;;;;;;;5.80;5.20;;;16.20;72.20;;;;;;5019803;28;20871;-46
2021/06/14 03:17:17;;;;;;;6.27;5.13;;;16.20;72.30;;;;;;5025717;28;20956;-46
2021/06/14 03:19:47;;;;;;;8.07;5.30;;;16.20;72.10;;;;;;5026126;28;20459;-46
2021/06/14 03:22:15;;;;;;;5.63;4.70;;;16.20;72.10;;;;;;5026166;28;20467;-46
2021/06/14 03:24:43;;;;;;;7.83;4.80;;;16.10;72.00;;;;;;5021624;28;20456;-46
2021/06/14 03:27:14;;;;;;;7.00;5.40;;;16.10;72.10;;;;;;5019795;28;20463;-46
2021/06/14 03:29:45;;;;;;;6.90;5.70;;;16.10;72.10;;;;;;5024783;28;20488;-46
2021/06/14 03:32:13;;;;;;;6.97;4.93;;;16.10;72.20;;;;;;5021075;28;21124;-46
2021/06/14 03:34:42;;;;;;;9.00;5.60;;;16.10;72.30;;;;;;5022113;28;20451;-46
2021/06/14 03:37:11;;;;;;;6.87;4.63;;;16.10;71.90;;;;;;5025797;28;20459;-46
2021/06/14 03:39:40;;;;;;;6.67;4.23;;;16.20;71.10;;;;;;5027818;28;20957;-46
2021/06/14 03:42:11;;;;;;;6.73;4.60;;;16.10;71.10;;;;;;5027869;28;20482;-46
2021/06/14 03:44:40;;;;;;;8.27;5.40;;;16.10;71.20;;;;;;5026824;28;20486;-45
2021/06/14 03:47:08;;;;;;;5.20;4.60;;;16.00;71.30;;;;;;5027909;28;20468;-45
2021/06/14 03:49:36;;;;;;;5.03;4.43;;;16.00;71.50;;;;;;5027343;28;20480;-45
2021/06/14 03:52:04;;;;;;;8.67;4.80;;;15.90;71.60;;;;;;5024270;28;20817;-47
2021/06/14 03:54:32;;;;;;;6.27;4.80;;;15.90;71.70;;;;;;5010452;28;20466;-45
2021/06/14 03:57:00;;;;;;;6.57;4.80;;;15.90;72.00;;;;;;5028958;28;20497;-45
2021/06/14 03:59:28;;;;;;;6.00;4.63;;;16.00;71.90;;;;;;5029837;28;20463;-45
2021/06/14 04:01:56;;;;;;;6.43;5.20;;;16.00;71.90;;;;;;5029145;28;20470;-45
2021/06/14 04:04:46;;;;;;;7.47;4.63;;;16.00;71.70;;;;;;5028458;28;20458;-44
2021/06/14 04:07:14;;;;;;;7.20;4.57;;;16.00;72.00;;;;;;5024524;28;20463;-47
2021/06/14 04:09:43;;;;;;;6.83;5.20;;;16.00;72.00;;;;;;5025027;28;20496;-45
2021/06/14 04:12:11;;;;;;;7.23;5.13;;;16.00;72.10;;;;;;5026661;28;20925;-45
2021/06/14 04:14:42;;;;;;;7.13;5.03;;;16.00;71.90;;;;;;5027253;28;20451;-46
2021/06/14 04:17:10;;;;;;;5.00;4.10;;;16.00;71.70;;;;;;5028555;28;20483;-45
2021/06/14 04:19:38;;;;;;;5.90;4.33;;;16.00;71.70;;;;;;5027884;28;20463;-45
2021/06/14 04:22:06;;;;;;;4.70;4.30;;;15.90;72.20;;;;;;5023080;28;20469;-47
2021/06/14 04:24:34;;;;;;;9.40;6.17;;;16.00;72.40;;;;;;5025432;28;20455;-47
2021/06/14 04:27:03;;;;;;;5.87;5.27;;;16.00;72.50;;;;;;5028076;28;20466;-46
2021/06/14 04:29:31;;;;;;;7.13;6.10;;;16.00;72.60;;;;;;5026864;28;20483;-47
2021/06/14 04:32:06;;;;;;;6.60;5.17;;;16.00;72.60;;;;;;5028183;28;20966;-45
2021/06/14 04:34:34;;;;;;;7.10;4.80;;;16.00;73.00;;;;;;5023749;28;20463;-45
2021/06/14 04:37:02;;;;;;;6.10;5.50;;;16.10;72.70;;;;;;5027114;28;20827;-45
2021/06/14 04:39:30;;;;;;;7.50;4.70;;;16.10;72.40;;;;;;5025138;28;20455;-45
2021/06/14 04:41:58;;;;;;;7.40;5.03;;;16.10;72.60;;;;;;5027004;28;20467;-45
2021/06/14 04:44:27;;;;;;;8.23;5.07;;;16.20;72.80;;;;;;5026932;28;20466;-45
2021/06/14 04:46:55;;;;;;;6.20;4.90;;;16.30;72.40;;;;;;5026726;28;20468;-45
2021/06/14 04:49:23;;;;;;;4.57;4.03;;;16.30;72.00;;;;;;5024562;28;20488;-45
2021/06/14 04:51:52;;;;;;;7.57;4.60;;;16.40;71.70;;;;;;5026474;28;20466;-45
2021/06/14 04:54:20;;;;;;;10.07;5.10;;;16.40;71.60;;;;;;5010291;28;20464;-45
2021/06/14 04:56:48;;;;;;;6.93;4.80;;;16.40;71.90;;;;;;5022924;28;20465;-45
2021/06/14 04:59:17;;;;;;;7.70;4.50;;;16.40;72.10;;;;;;5027459;28;20474;-45
2021/06/14 05:01:44;;;;;;;5.43;4.37;;;16.50;71.90;;;;;;5023509;28;20459;-45
2021/06/14 05:04:13;;;;;;;6.43;4.80;;;16.60;71.70;;;;;;5013712;28;20529;-45
2021/06/14 05:06:41;;;;;;;6.83;4.13;;;16.60;71.80;;;;;;5024197;28;20463;-45
2021/06/14 05:09:09;;;;;;;9.77;5.87;;;16.70;71.90;;;;;;5025314;28;20444;-45
2021/06/14 05:11:36;;;;;;;9.77;4.70;;;16.70;71.80;;;;;;5023557;28;20457;-45
2021/06/14 05:14:04;;;;;;;5.13;4.00;;;16.80;71.80;;;;;;5023637;28;20451;-45
2021/06/14 05:16:33;;;;;;;8.77;4.73;;;16.80;71.60;;;;;;5022860;28;20929;-45
2021/06/14 05:19:00;;;;;;;5.63;3.97;;;16.90;70.90;;;;;;5028179;28;20463;-45
2021/06/14 05:21:28;;;;;;;4.70;3.73;;;17.00;67.90;;;;;;5028212;28;20443;-45
2021/06/14 05:23:57;;;;;;;6.37;4.20;;;17.10;67.20;;;;;;5024736;28;20455;-45
2021/06/14 05:26:25;;;;;;;4.63;3.90;;;17.20;66.90;;;;;;5023809;28;20467;-45
2021/06/14 05:28:52;;;;;;;4.10;3.37;;;17.20;66.40;;;;;;5026260;28;20468;-46
2021/06/14 05:31:22;;;;;;;4.03;3.23;;;17.40;65.50;;;;;;5023303;28;20487;-45
2021/06/14 05:33:50;;;;;;;5.90;3.43;;;17.50;63.90;;;;;;5028431;28;20526;-45
2021/06/14 05:36:18;;;;;;;7.77;3.70;;;17.60;63.50;;;;;;5027311;28;20448;-45
2021/06/14 05:38:46;;;;;;;5.93;3.47;;;17.70;62.90;;;;;;5025461;28;20451;-44
2021/06/14 05:41:14;;;;;;;6.80;3.60;;;17.80;63.00;;;;;;5025696;28;20476;-46
2021/06/14 05:43:42;;;;;;;8.00;3.50;;;17.90;62.90;;;;;;5025453;28;20463;-45
2021/06/14 05:46:10;;;;;;;7.10;3.80;;;18.00;63.10;;;;;;5023107;28;20525;-45
2021/06/14 05:48:38;;;;;;;8.90;3.50;;;18.10;62.20;;;;;;5025998;28;20460;-45
2021/06/14 05:51:07;;;;;;;7.40;3.77;;;18.10;62.10;;;;;;5025944;28;20485;-45
2021/06/14 05:53:38;;;;;;;5.33;3.20;;;18.20;61.90;;;;;;5024244;28;20468;-45
2021/06/14 05:56:06;;;;;;;3.60;3.10;;;18.30;61.60;;;;;;5024396;28;20474;-45
2021/06/14 05:58:34;;;;;;;13.00;4.70;;;18.30;61.80;;;;;;5025266;28;20455;-45
2021/06/14 06:01:02;;;;;;;6.97;3.70;;;18.40;61.50;;;;;;5021731;28;20455;-45
2021/06/14 06:03:30;;;;;;;6.40;3.70;;;18.50;61.00;;;;;;5022909;28;20462;-45
2021/06/14 06:05:58;;;;;;;5.93;3.83;;;18.50;60.70;;;;;;5024843;28;20872;-45
2021/06/14 06:08:26;;;;;;;5.07;3.87;;;18.60;60.70;;;;;;5024365;28;20456;-45
2021/06/14 06:10:54;;;;;;;6.37;3.87;;;18.60;60.60;;;;;;5025506;28;20868;-46
2021/06/14 06:13:22;;;;;;;8.20;3.93;;;18.70;60.90;;;;;;5024396;28;20452;-46
2021/06/14 06:15:50;;;;;;;8.90;3.83;;;18.70;60.60;;;;;;5024826;28;20452;-46
2021/06/14 06:18:18;;;;;;;8.33;4.73;;;18.80;60.80;;;;;;5022231;28;20466;-46
2021/06/14 06:20:46;;;;;;;6.30;3.73;;;18.80;61.00;;;;;;5023591;28;20949;-46
2021/06/14 06:23:14;;;;;;;6.63;3.27;;;18.90;60.30;;;;;;5027343;28;20458;-45
2021/06/14 06:25:42;;;;;;;7.70;3.43;;;19.00;60.40;;;;;;5005419;28;20460;-44
2021/06/14 06:28:11;;;;;;;5.63;3.30;;;19.00;60.20;;;;;;5021656;28;20856;-45
2021/06/14 06:30:40;;;;;;;6.07;3.70;;;19.00;60.40;;;;;;5024187;28;20480;-46
2021/06/14 06:33:08;;;;;;;5.13;3.70;;;19.10;60.70;;;;;;5023081;28;20542;-45
2021/06/14 06:35:37;;;;;;;4.03;3.40;;;19.20;61.00;;;;;;5021888;28;20455;-46
2021/06/14 06:38:05;;;;;;;7.43;3.53;;;19.30;60.60;;;;;;5021999;28;20943;-45
2021/06/14 06:40:33;;;;;;;9.23;4.20;;;19.40;59.90;;;;;;5023667;28;20462;-45
2021/06/14 06:43:06;;;;;;;7.03;3.60;;;19.50;59.50;;;;;;5021069;28;20956;-45
2021/06/14 06:45:34;;;;;;;11.33;3.70;;;19.50;59.80;;;;;;5026814;28;20470;-45
2021/06/14 06:48:03;;;;;;;5.83;4.47;;;19.70;59.40;;;;;;5024788;28;20447;-45
2021/06/14 06:50:30;;;;;;;4.50;3.63;;;19.70;59.00;;;;;;5024321;28;20494;-46
2021/06/14 06:52:58;;;;;;;8.10;4.30;;;19.90;58.80;;;;;;5023391;28;20464;-46
2021/06/14 06:55:26;;;;;;;5.77;3.63;;;19.90;58.90;;;;;;5022336;28;20856;-46
2021/06/14 06:57:56;;;;;;;4.93;3.83;;;20.00;59.20;;;;;;5024058;28;20479;-46
2021/06/14 07:00:25;;;;;;;10.43;4.20;;;20.20;59.80;;;;;;5024486;28;20547;-46
2021/06/14 07:02:53;;;;;;;5.90;3.70;;;20.30;59.40;;;;;;5023713;28;20463;-46
2021/06/14 07:05:37;;;;;;;6.10;3.70;;;20.40;59.40;;;;;;5027108;28;20530;-46
2021/06/14 07:08:05;;;;;;;6.67;3.80;;;20.60;57.80;;;;;;5027326;28;20506;-46
2021/06/14 07:10:33;;;;;;;5.30;3.10;;;20.70;57.00;;;;;;5022780;28;20492;-46
2021/06/14 07:13:01;;;;;;;5.30;3.70;;;20.80;56.70;;;;;;5026879;28;20455;-46
2021/06/14 07:15:29;;;;;;;4.43;3.23;;;20.90;56.70;;;;;;5023559;28;20456;-46
2021/06/14 07:17:57;;;;;;;4.53;3.60;;;21.10;55.90;;;;;;5023321;28;20446;-46
2021/06/14 07:20:28;;;;;;;4.60;3.40;;;21.20;56.00;;;;;;5024942;28;20476;-46
2021/06/14 07:22:56;;;;;;;7.43;3.20;;;21.40;56.70;;;;;;5026306;28;20467;-46
2021/06/14 07:25:24;;;;;;;6.40;3.90;;;21.50;55.50;;;;;;5026135;28;20467;-46
2021/06/14 07:27:52;;;;;;;6.70;3.43;;;21.70;54.10;;;;;;5024837;28;21296;-46
2021/06/14 07:30:31;;;;;;;6.93;3.43;;;21.90;54.20;;;;;;5026093;28;20478;-46
2021/06/14 07:32:59;;;;;;;7.43;3.70;;;22.00;54.40;;;;;;5024015;28;20471;-46
2021/06/14 07:35:32;;;;;;;7.73;3.80;;;22.20;53.40;;;;;;5026319;28;20451;-46
2021/06/14 07:38:01;;;;;;;5.30;3.27;;;22.40;53.30;;;;;;5021294;28;20553;-46
2021/06/14 07:40:32;;;;;;;5.50;3.93;;;22.60;52.90;;;;;;5022741;28;20463;-46
2021/06/14 07:43:00;;;;;;;7.33;3.13;;;22.70;52.60;;;;;;5023352;28;20517;-46
2021/06/14 07:45:28;;;;;;;4.20;2.97;;;22.90;52.20;;;;;;5024888;28;20463;-46
2021/06/14 07:47:56;;;;;;;5.80;3.60;;;23.10;52.60;;;;;;5025500;28;20465;-46
2021/06/14 07:50:24;;;;;;;6.50;2.90;;;23.30;51.60;;;;;;5023901;28;20498;-46
2021/06/14 07:52:52;;;;;;;5.60;3.30;;;23.50;50.40;;;;;;5024055;28;20443;-46
2021/06/14 07:55:21;;;;;;;4.80;3.47;;;23.60;50.20;;;;;;5024073;28;20450;-46
2021/06/14 07:57:49;;;;;;;5.77;3.87;;;23.70;50.10;;;;;;5024008;28;20451;-46
2021/06/14 08:00:17;;;;;;;5.00;3.50;;;23.80;50.60;;;;;;5022451;28;20462;-46
2021/06/14 08:02:44;;;;;;;7.93;3.50;;;23.90;50.80;;;;;;5034098;23;20904;-87
2021/06/14 08:05:12;;;;;;;6.70;3.53;;;24.10;48.70;;;;;;5008942;28;21077;-86
2021/06/14 08:07:39;;;;;;;9.57;3.60;;;24.20;48.70;;;;;;4995899;28;20456;-87
2021/06/14 08:10:09;;;;;;;5.13;3.47;;;24.30;48.30;;;;;;5009238;28;20495;-87
2021/06/14 08:12:44;;;;;;;6.33;3.77;;;24.50;48.00;;;;;;4991047;28;20969;-86
2021/06/14 08:15:16;;;;;;;3.90;3.00;;;24.60;47.50;;;;;;4996676;28;20415;-86
2021/06/14 08:17:43;;;;;;;6.60;3.40;;;24.80;46.10;;;;;;5014402;28;20448;-85
2021/06/14 08:20:19;;;;;;;3.40;3.10;;;24.90;46.20;;;;;;5013823;28;20509;-86
2021/06/14 08:25:35;;;;;;;3.80;3.33;;;25.10;46.30;;;;;;5018249;28;20447;-85
2021/06/14 08:28:03;;;;;;;4.97;3.80;;;25.20;46.30;;;;;;5003759;28;20467;-85
2021/06/14 08:30:31;;;;;;;4.43;3.03;;;25.30;45.50;;;;;;5016824;28;20483;-85
2021/06/14 08:32:58;;;;;;;5.20;3.40;;;25.40;45.80;;;;;;4999513;28;20491;-86
2021/06/14 08:35:27;;;;;;;3.63;2.47;;;25.50;46.60;;;;;;4995821;28;20953;-86
2021/06/14 08:37:59;;;;;;;5.67;3.17;;;25.60;45.40;;;;;;4999366;28;20460;-86
2021/06/14 08:40:35;;;;;;;5.70;2.83;;;25.70;45.40;;;;;;4999042;28;20448;-86
2021/06/14 08:43:05;;;;;;;4.60;3.30;;;25.80;45.40;;;;;;5000100;28;20479;-87
2021/06/14 08:45:35;;;;;;;5.60;3.40;;;26.00;45.90;;;;;;4982270;28;20460;-85
2021/06/14 08:48:05;;;;;;;5.77;3.60;;;26.20;45.00;;;;;;5000157;28;20461;-86
2021/06/14 08:50:33;;;;;;;3.73;3.30;;;26.20;44.30;;;;;;4981673;28;20531;-85
2021/06/14 08:53:00;;;;;;;6.50;3.20;;;26.30;44.30;;;;;;4993981;28;20461;-86
2021/06/14 08:55:28;;;;;;;5.60;3.30;;;26.50;44.20;;;;;;4988181;28;20551;-87
2021/06/14 08:57:55;;;;;;;8.07;3.10;;;26.60;44.30;;;;;;4980284;28;20456;-87
2021/06/14 09:00:25;;;;;;;4.33;3.10;;;26.70;43.90;;;;;;4998220;28;20563;-86
2021/06/14 09:02:53;;;;;;;6.47;3.57;;;26.80;44.00;;;;;;4988154;28;20477;-87
2021/06/14 09:05:21;;;;;;;4.53;3.27;;;26.90;43.60;;;;;;4980105;28;20898;-85
2021/06/14 09:07:49;;;;;;;4.00;3.30;;;27.00;42.90;;;;;;4994377;28;20517;-85
2021/06/14 09:10:38;;;;;;;4.53;2.87;;;27.20;42.50;;;;;;4996460;28;20483;-86
2021/06/14 09:13:12;;;;;;;5.73;3.07;;;27.30;42.30;;;;;;4995550;28;20799;-86
2021/06/14 09:15:41;;;;;;;5.03;3.90;;;27.40;41.80;;;;;;4990045;28;20457;-85
2021/06/14 09:18:20;;;;;;;8.57;3.80;;;27.50;41.80;;;;;;4993790;28;20477;-86
2021/06/14 09:21:01;;;;;;;7.07;3.93;;;27.70;41.70;;;;;;4986763;28;20455;-86
2021/06/14 09:24:07;;;;;;;4.23;2.87;;;27.90;41.70;;;;;;4994892;28;20838;-86
2021/06/14 09:26:40;;;;;;;3.30;3.00;;;28.20;41.30;;;;;;4984960;28;20292;-86
2021/06/14 09:29:23;;;;;;;3.20;2.83;;;28.50;39.90;;;;;;4990914;28;20467;-86
2021/06/14 09:31:53;;;;;;;5.17;3.20;;;28.70;39.30;;;;;;4997051;28;20218;-86
2021/06/14 09:34:32;;;;;;;3.53;3.13;;;29.00;39.30;;;;;;4998422;28;20279;-87
2021/06/14 09:37:02;;;;;;;4.00;3.03;;;29.30;38.30;;;;;;4995690;28;20205;-87
2021/06/14 09:39:40;;;;;;;3.50;3.20;;;29.70;38.00;;;;;;4979767;28;20232;-86
2021/06/14 09:42:19;;;;;;;4.30;2.97;;;30.10;37.70;;;;;;4978933;28;20210;-86
2021/06/14 09:44:57;;;;;;;5.30;3.33;;;30.40;37.20;;;;;;4977512;28;20206;-86
2021/06/14 09:47:34;;;;;;;3.40;2.47;;;30.70;36.50;;;;;;4995718;28;20672;-86
2021/06/14 09:50:10;;;;;;;3.65;2.83;;;31.10;34.50;;;;;;4978913;28;20217;-86
2021/06/14 09:52:41;;;;;;;4.47;2.33;;;31.20;34.80;;;;;;4995340;28;20201;-87
2021/06/14 09:55:15;;;;;;;5.95;3.40;;;31.10;35.50;;;;;;4975336;28;20209;-87
2021/06/14 09:58:43;;;;;;;5.03;2.92;;;31.00;36.20;;;;;;4994774;28;20202;-87
2021/06/14 10:01:20;;;;;;;3.67;2.95;;;30.70;36.20;;;;;;4982783;28;20270;-87
2021/06/14 10:03:47;;;;;;;8.07;3.65;;;30.40;36.40;;;;;;5000673;28;20201;-86
2021/06/14 10:06:28;;;;;;;3.60;2.60;;;30.10;37.10;;;;;;4978706;28;20629;-86
2021/06/14 10:09:18;;;;;;;6.40;2.97;;;29.90;38.00;;;;;;4976305;28;20220;-86
2021/06/14 10:11:48;;;;;;;4.20;2.93;;;29.60;36.90;;;;;;4992682;28;20273;-86
2021/06/14 10:14:21;;;;;;;4.23;2.87;;;29.30;37.40;;;;;;4983934;28;20229;-87
2021/06/14 10:16:49;;;;;;;5.23;3.30;;;29.10;38.60;;;;;;4990618;28;20202;-86
2021/06/14 10:19:18;;;;;;;5.87;3.13;;;28.80;38.70;;;;;;4995952;28;20210;-86
2021/06/14 10:21:50;;;;;;;4.27;2.87;;;28.60;38.80;;;;;;4992022;28;20460;-86
2021/06/14 10:24:20;;;;;;;4.03;3.00;;;28.30;39.00;;;;;;4997594;28;20489;-87
2021/06/14 10:26:53;;;;;;;5.20;3.33;;;28.00;39.40;;;;;;4992316;28;20448;-86
2021/06/14 10:33:19;;;;;;;4.07;3.27;;;27.60;39.60;;;;;;4977523;28;20492;-87
2021/06/14 10:35:46;;;;;;;2.93;2.67;;;27.40;40.10;;;;;;4978134;28;20457;-87
2021/06/14 10:38:17;;;;;;;3.93;2.73;;;27.30;40.20;;;;;;4975368;28;20507;-88
2021/06/14 10:40:45;;;;;;;6.60;3.27;;;27.20;40.70;;;;;;4978072;28;20472;-88
2021/06/14 10:43:15;;;;;;;3.27;2.97;;;26.90;41.70;;;;;;4977654;28;20998;-87
2021/06/14 10:45:42;;;;;;;6.63;3.00;;;26.60;41.70;;;;;;4993724;28;20465;-87
2021/06/14 10:48:11;;;;;;;6.90;3.00;;;26.50;41.80;;;;;;4999142;28;20477;-87
2021/06/14 10:50:59;;;;;;;5.20;3.40;;;26.30;41.90;;;;;;4989538;28;20477;-87
2021/06/14 10:54:09;;;;;;;4.77;2.93;;;26.30;42.10;;;;;;4989625;28;20452;-88
2021/06/14 10:56:39;;;;;;;5.07;3.27;;;26.20;42.20;;;;;;4979868;28;20901;-87
2021/06/14 10:59:31;;;;;;;4.13;3.00;;;26.10;42.90;;;;;;4971290;28;20461;-87
2021/06/14 11:02:24;;;;;;;5.33;3.00;;;26.10;43.00;;;;;;4979753;28;20468;-87
2021/06/14 11:05:58;;;;;;;4.90;3.20;;;26.10;42.90;;;;;;4993737;28;20472;-88
2021/06/14 11:09:03;;;;;;;3.57;3.23;;;26.10;42.10;;;;;;4998305;28;20466;-88
2021/06/14 11:11:57;;;;;;;6.67;3.30;;;26.10;41.60;;;;;;4995025;28;20482;-87
2021/06/14 11:15:01;;;;;;;4.07;2.87;;;26.10;41.60;;;;;;4971475;28;20461;-87
2021/06/14 11:21:52;;;;;;;5.73;3.07;;;26.00;42.30;;;;;;4958357;28;20427;-88
2021/06/14 11:24:33;;;;;;;3.10;2.80;;;26.00;42.00;;;;;;4976872;28;21296;-87
2021/06/14 11:27:01;;;;;;;7.40;2.70;;;25.90;41.90;;;;;;4982192;28;20457;-86
2021/06/14 11:29:46;;;;;;;3.63;2.80;;;25.90;42.50;;;;;;4980479;28;20460;-87
2021/06/14 11:32:49;;;;;;;3.37;2.90;;;25.90;42.40;;;;;;4984487;28;20480;-88
2021/06/14 11:35:27;;;;;;;3.60;2.80;;;25.90;42.30;;;;;;4981020;28;20487;-87
2021/06/14 11:38:24;;;;;;;4.40;3.00;;;25.90;43.70;;;;;;4976735;28;21361;-88
2021/06/14 11:49:46;;;;;;;4.63;2.50;;;25.80;41.00;;;;;;4894213;29;20576;-87
2021/06/14 11:52:39;;;;;;;4.37;2.53;;;25.90;41.50;;;;;;4897288;29;20612;-87
2021/06/14 11:55:46;;;;;;;5.20;3.33;;;25.90;41.50;;;;;;4895855;29;20563;-87
2021/06/14 12:02:33;;;;;;;4.70;3.20;;;25.90;42.00;;;;;;4899569;29;20544;-88
2021/06/14 12:05:05;;;;;;;3.07;2.80;;;25.80;42.10;;;;;;4902230;29;20462;-87
2021/06/14 12:07:34;;;;;;;7.80;2.73;;;25.80;42.10;;;;;;4923127;29;21001;-87
2021/06/14 12:10:10;;;;;;;3.23;2.90;;;25.80;41.70;;;;;;4943896;29;20491;-88
2021/06/14 12:16:31;;;;;;;6.13;2.90;;;25.90;41.80;;;;;;4935360;29;20491;-87
2021/06/14 12:20:00;;;;;;;;;;;;;;;;;;;;;
2021/06/14 12:23:03;;;;;;;4.40;3.00;;;26.00;41.40;;;;;;4969485;28;20464;-88
2021/06/14 12:25:46;;;;;;;5.23;3.00;;;26.10;41.80;;;;;;4999237;28;20825;-88
2021/06/14 12:28:16;;;;;;;3.27;2.67;;;26.00;40.90;;;;;;4976383;28;20460;-87
2021/06/14 12:30:45;;;;;;;3.37;2.20;;;26.00;40.30;;;;;;4979035;28;20456;-87
2021/06/14 12:33:26;;;;;;;2.60;2.37;;;26.00;41.60;;;;;;4982897;28;20449;-90
2021/06/14 12:35:58;;;;;;;4.37;2.97;;;26.10;41.00;;;;;;4984982;28;20463;-85
2021/06/14 12:38:34;;;;;;;5.10;3.07;;;26.00;41.40;;;;;;5006314;28;20468;-88
2021/06/14 12:41:03;;;;;;;4.00;2.33;;;26.00;41.70;;;;;;4986620;28;20858;-89
2021/06/14 12:43:32;;;;;;;6.03;2.33;;;26.00;41.60;;;;;;4997951;28;20472;-89
2021/06/14 12:45:59;;;;;;;4.53;2.23;;;25.90;42.10;;;;;;4978120;28;20440;-90
2021/06/14 12:48:49;;;;;;;2.90;2.60;;;25.90;41.10;;;;;;4997059;28;20501;-87
2021/06/14 12:51:16;;;;;;;5.20;2.70;;;26.00;41.60;;;;;;4981643;28;20564;-90
2021/06/14 12:57:24;;;;;;;7.97;2.77;;;26.10;43.10;;;;;;4988685;28;20452;-87
2021/06/14 12:59:53;;;;;;;4.90;2.97;;;26.10;42.10;;;;;;4980204;28;20475;-87
2021/06/14 13:02:20;;;;;;;4.07;2.10;;;26.10;42.10;;;;;;4995315;28;20471;-87
2021/06/14 13:08:37;;;;;;;3.40;2.60;;;26.20;41.90;;;;;;4991973;28;20874;-89
2021/06/14 13:11:10;;;;;;;3.20;2.40;;;26.30;42.80;;;;;;4995420;28;20471;-87
2021/06/14 13:13:45;;;;;;;3.30;3.00;;;26.20;43.40;;;;;;4989080;28;21005;-87
2021/06/14 13:16:22;;;;;;;4.97;2.63;;;26.30;42.00;;;;;;4992752;28;20465;-87
2021/06/14 13:19:01;;;;;;;3.57;2.70;;;26.30;42.50;;;;;;4975679;28;20451;-86
2021/06/14 13:21:37;;;;;;;3.73;2.53;;;26.40;40.70;;;;;;4997038;28;20566;-86
2021/06/14 13:24:41;;;;;;;3.60;2.70;;;26.40;40.60;;;;;;4977294;28;20464;-87
2021/06/14 13:27:55;;;;;;;3.90;2.50;;;26.50;40.40;;;;;;4988667;28;20456;-86
2021/06/14 13:30:46;;;;;;;8.50;2.77;;;26.60;41.10;;;;;;4950895;28;20459;-86
2021/06/14 13:33:40;;;;;;;;;;;;;;;;;;;;;
2021/06/14 13:36:21;;;;;;;6.20;3.10;;;26.60;41.20;;;;;;5000943;28;20962;-87
2021/06/14 13:38:49;;;;;;;3.83;2.57;;;26.60;41.40;;;;;;4979404;28;20452;-87
2021/06/14 13:41:40;;;;;;;3.17;2.50;;;26.60;42.70;;;;;;4990069;28;20963;-88
2021/06/14 13:44:22;;;;;;;3.87;2.90;;;26.60;43.70;;;;;;4948434;28;20448;-88
2021/06/14 13:46:51;;;;;;;3.43;2.43;;;26.70;43.10;;;;;;4991228;28;20493;-87
2021/06/14 13:49:29;;;;;;;2.47;2.27;;;26.70;43.80;;;;;;4975892;28;20828;-87
2021/06/14 13:52:07;;;;;;;5.23;2.33;;;26.70;42.30;;;;;;4977724;28;20852;-88
2021/06/14 13:54:36;;;;;;;5.57;2.60;;;26.70;43.40;;;;;;4997797;28;20934;-88